< < Back
Terminal Aerodrome Forecast


Current Version              Previous Versions:   1  2  3  4  5  6  7  8  9  

Terminal Aerodrome Forecast

123
FTUS42 KGSP 020500
TAFCLT
TAF
KCLT 020535Z 0206/0306 06006KT P6SM OVC006
     FM021500 03006KT P6SM OVC012
     FM021700 03005KT P6SM OVC021
     FM021900 03004KT P6SM OVC035 PROB30 0219/0301 4SM TSRA OVC015CB
     FM030100 00000KT P6SM OVC060=

Latest METAR

618
SAUS70 KWBC 020700 RRA
MTRCLT
METAR KCLT 020652Z 05005KT 10SM OVC005 19/17 A3011 RMK AO2 SLP188
T01890172


USA.gov is the U.S. government's official web portal to all federal, state and local government web resources and services.